Time;durP1;ratioP1;P1;durP2;ratioP2;P2;SDS_P1;SDS_P2;PMS_P1;PMS_P2;Temp;Humidity;BMP_temperature;BMP_pressure;BME280_temperature;BME280_humidity;BME280_pressure;Samples;Min_cycle;Max_cycle;Signal;HPM_P1;HPM_P2
2022/09/07 00:00:05;;;;;;;4.15;3.55;;;;;;;21.96;69.01;99861.91;10361239;28;20068;-63
2022/09/07 00:05:07;;;;;;;4.55;2.70;;;;;;;21.95;69.29;99852.09;10362980;28;20148;-63
2022/09/07 00:10:08;;;;;;;3.28;2.97;;;;;;;22.01;70.00;99859.41;10362829;28;20064;-64
2022/09/07 00:15:11;;;;;;;2.92;2.67;;;;;;;22.06;68.88;99867.72;10361572;28;20181;-65
2022/09/07 00:20:13;;;;;;;4.85;2.92;;;;;;;22.02;69.40;99863.78;10358910;28;20038;-63
2022/09/07 00:25:15;;;;;;;4.03;2.88;;;;;;;22.13;68.59;99862.31;10360151;28;20778;-64
2022/09/07 00:30:16;;;;;;;2.90;2.70;;;;;;;22.04;69.58;99859.00;10358614;28;20852;-63
2022/09/07 00:35:18;;;;;;;3.47;2.50;;;;;;;21.95;69.36;99854.78;10357462;28;20050;-65
2022/09/07 00:40:19;;;;;;;5.05;3.40;;;;;;;21.96;68.92;99857.28;10356030;28;20177;-68
2022/09/07 00:45:21;;;;;;;3.45;2.83;;;;;;;22.01;69.27;99865.66;10360123;28;20063;-62
2022/09/07 00:50:42;;;;;;;3.33;3.03;;;;;;;22.02;69.16;99858.34;10357249;28;20135;-65
2022/09/07 00:55:46;;;;;;;4.18;2.58;;;;;;;22.05;68.99;99852.50;10333832;28;20156;-63
2022/09/07 01:00:49;;;;;;;4.40;2.85;;;;;;;22.02;67.89;99855.63;10352899;28;20132;-63
2022/09/07 01:06:22;;;;;;;5.23;3.30;;;;;;;22.05;67.64;99849.81;10360363;28;20065;-63
2022/09/07 01:11:23;;;;;;;4.95;3.72;;;;;;;22.09;67.72;99851.06;10357707;28;20053;-64
2022/09/07 01:16:47;;;;;;;3.42;3.05;;;;;;;22.09;69.74;99880.88;10359104;28;20232;-64
2022/09/07 01:22:33;;;;;;;3.60;2.92;;;;;;;22.01;70.73;99868.38;10317495;28;20675;-63
2022/09/07 01:27:55;;;;;;;5.25;2.85;;;;;;;21.93;71.97;99859.59;10281172;28;20486;-64
2022/09/07 01:33:21;;;;;;;2.63;2.40;;;;;;;21.93;72.57;99855.00;10344235;28;20552;-63
2022/09/07 01:38:37;;;;;;;3.53;3.22;;;;;;;21.85;71.01;99834.38;10317880;28;20120;-64
2022/09/07 01:43:41;;;;;;;3.88;3.00;;;;;;;21.81;70.65;99833.16;10317569;28;20073;-64
2022/09/07 01:48:46;;;;;;;3.10;2.60;;;;;;;21.72;71.70;99818.09;10317488;28;20327;-63
2022/09/07 01:53:57;;;;;;;3.90;2.63;;;;;;;21.67;72.09;99802.47;10316595;28;20537;-63
2022/09/07 01:59:34;;;;;;;3.60;3.08;;;;;;;21.64;70.65;99807.50;10317814;28;20140;-63
2022/09/07 02:04:44;;;;;;;6.13;2.60;;;;;;;21.65;69.32;99817.28;10328064;28;20069;-62
2022/09/07 02:10:09;;;;;;;3.15;2.05;;;;;;;21.48;68.56;99850.16;10358593;28;20614;-62
2022/09/07 02:15:17;;;;;;;3.28;2.15;;;;;;;21.45;67.50;99863.25;10339319;28;20121;-62
2022/09/07 02:20:25;;;;;;;3.75;2.35;;;;;;;21.40;67.15;99892.81;10318051;28;20230;-62
2022/09/07 02:25:41;;;;;;;4.82;2.75;;;;;;;21.15;69.74;99912.28;10332072;28;20643;-63
2022/09/07 02:30:43;;;;;;;4.60;3.70;;;;;;;21.05;72.02;99907.25;10321141;28;20784;-65
2022/09/07 02:35:45;;;;;;;7.15;4.10;;;;;;;21.02;73.67;99905.75;10316943;28;20164;-62
2022/09/07 02:40:51;;;;;;;5.40;4.93;;;;;;;20.99;77.29;99910.75;10344708;28;20054;-62
2022/09/07 02:46:14;;;;;;;6.70;4.35;;;;;;;20.56;79.67;99986.56;10349727;28;20606;-62
2022/09/07 02:51:34;;;;;;;4.72;3.42;;;;;;;20.49;76.58;99957.63;10357164;28;20058;-63
2022/09/07 02:56:53;;;;;;;5.55;3.78;;;;;;;20.61;74.85;99921.91;10322774;28;20510;-64
2022/09/07 03:02:03;;;;;;;4.82;2.88;;;;;;;20.59;74.45;99918.59;10361365;28;20061;-64
2022/09/07 03:07:13;;;;;;;3.83;3.35;;;;;;;20.43;76.23;99898.94;10363814;28;20419;-64
2022/09/07 03:12:15;;;;;;;4.40;3.63;;;;;;;20.42;77.58;99878.31;10322543;28;20172;-64
2022/09/07 03:17:17;;;;;;;4.60;4.03;;;;;;;20.38;77.19;99870.81;10321352;28;20042;-64
2022/09/07 03:22:18;;;;;;;5.32;3.38;;;;;;;20.32;77.41;99853.50;10329466;28;20168;-64
2022/09/07 03:27:20;;;;;;;4.55;3.72;;;;;;;20.25;78.47;99839.09;10339238;28;20045;-64
2022/09/07 03:32:21;;;;;;;3.80;3.47;;;;;;;20.31;78.67;99832.91;10329704;28;20053;-65
2022/09/07 03:37:23;;;;;;;4.25;3.63;;;;;;;20.37;78.29;99815.06;10363194;28;20120;-64
2022/09/07 03:42:24;;;;;;;4.70;3.45;;;;;;;20.36;77.92;99811.53;10363397;28;20129;-65
2022/09/07 03:47:26;;;;;;;6.07;5.10;;;;;;;20.30;78.85;99810.47;10323409;28;20054;-65
2022/09/07 03:52:27;;;;;;;5.43;4.75;;;;;;;20.29;78.54;99805.25;10336854;28;20168;-66
2022/09/07 03:57:29;;;;;;;4.88;4.28;;;;;;;20.27;78.70;99805.47;10321407;28;20069;-65
2022/09/07 04:02:30;;;;;;;4.93;3.83;;;;;;;20.36;79.02;99814.25;10322140;28;20172;-65
2022/09/07 04:07:32;;;;;;;5.88;4.20;;;;;;;20.46;77.97;99825.56;10340123;28;20852;-65
2022/09/07 04:12:33;;;;;;;7.95;4.65;;;;;;;20.57;77.59;99826.03;10360449;28;20130;-66
2022/09/07 04:17:35;;;;;;;4.53;3.65;;;;;;;20.51;77.93;99815.97;10349003;28;20140;-65
2022/09/07 04:22:36;;;;;;;5.60;3.70;;;;;;;20.54;78.19;99826.44;10353521;28;20153;-66
2022/09/07 04:27:38;;;;;;;4.13;3.80;;;;;;;20.43;78.41;99822.38;10360509;28;20155;-66
2022/09/07 04:32:39;;;;;;;6.10;3.83;;;;;;;20.48;77.98;99819.94;10333968;28;20165;-65
2022/09/07 04:37:40;;;;;;;3.92;3.63;;;;;;;20.40;78.25;99820.94;10319064;28;20046;-65
2022/09/07 04:42:42;;;;;;;4.10;3.67;;;;;;;20.43;77.65;99827.78;10320833;28;20133;-66
2022/09/07 04:47:50;;;;;;;6.47;4.72;;;;;;;20.47;77.59;99821.78;10303945;28;20570;-65
2022/09/07 04:52:51;;;;;;;5.13;4.57;;;;;;;20.52;78.71;99833.88;10311623;28;20192;-65
2022/09/07 04:57:53;;;;;;;5.75;4.07;;;;;;;20.64;78.37;99826.88;10312588;28;20053;-65
2022/09/07 05:02:54;;;;;;;4.90;4.35;;;;;;;20.67;77.36;99831.91;10324572;28;20183;-65
2022/09/07 05:07:56;;;;;;;5.20;4.43;;;;;;;20.52;78.08;99839.28;10323890;28;20586;-65
2022/09/07 05:12:57;;;;;;;5.82;5.15;;;;;;;20.51;78.40;99853.84;10322750;28;20663;-66
2022/09/07 05:17:58;;;;;;;5.40;4.90;;;;;;;20.54;78.58;99853.47;10325875;28;20103;-64
2022/09/07 05:23:00;;;;;;;5.75;5.20;;;;;;;20.17;80.48;99847.38;10326244;28;20303;-65
2022/09/07 05:28:02;;;;;;;7.85;5.63;;;;;;;20.27;79.37;99842.47;10325068;28;20127;-70
2022/09/07 05:33:06;;;;;;;6.50;5.80;;;;;;;20.26;79.03;99857.00;10326115;28;20532;-66
2022/09/07 05:38:08;;;;;;;8.68;6.75;;;;;;;20.23;79.13;99866.31;10327910;28;20483;-65
2022/09/07 05:43:09;;;;;;;6.22;5.15;;;;;;;20.23;79.14;99874.44;10325844;28;20521;-65
2022/09/07 05:48:11;;;;;;;6.03;5.22;;;;;;;20.29;78.88;99868.25;10332967;28;20495;-65
2022/09/07 05:53:12;;;;;;;7.25;6.57;;;;;;;20.30;78.47;99869.09;10326943;28;20183;-65
2022/09/07 05:58:14;;;;;;;6.22;5.63;;;;;;;20.43;78.50;99869.19;10329991;28;20260;-65
2022/09/07 06:03:16;;;;;;;5.60;5.10;;;;;;;20.53;77.30;99868.81;10333972;28;20526;-65
2022/09/07 06:08:18;;;;;;;5.97;5.15;;;;;;;20.69;77.11;99877.69;10338509;28;20084;-65
2022/09/07 06:13:19;;;;;;;7.78;5.38;;;;;;;20.86;75.81;99875.50;10314099;28;20289;-65
2022/09/07 06:18:20;;;;;;;6.53;5.30;;;;;;;21.03;74.93;99879.53;10315968;23;20690;-60
2022/09/07 06:23:22;;;;;;;7.93;5.97;;;;;;;21.17;74.93;99875.03;10255263;28;21607;-60
2022/09/07 06:28:38;;;;;;;6.90;5.60;;;;;;;21.32;74.17;99873.00;10239249;28;20054;-60
2022/09/07 06:33:42;;;;;;;6.35;5.75;;;;;;;21.42;74.51;99883.41;10241184;28;20259;-65
2022/09/07 06:38:44;;;;;;;5.90;4.30;;;;;;;21.37;73.82;99888.63;10235372;28;20499;-65
2022/09/07 06:43:45;;;;;;;5.65;4.68;;;;;;;21.39;73.43;99899.25;10233110;28;20549;-64
2022/09/07 06:48:50;;;;;;;6.13;5.28;;;;;;;21.45;74.10;99893.88;10232088;28;20607;-64
2022/09/07 06:54:00;;;;;;;10.23;6.13;;;;;;;21.50;73.35;99893.28;10230662;28;20054;-64
2022/09/07 06:59:22;;;;;;;7.60;6.18;;;;;;;21.58;73.76;99897.69;10229437;28;20054;-66
2022/09/07 07:04:23;;;;;;;7.22;6.53;;;;;;;21.76;73.58;99892.50;10237180;28;20050;-64
2022/09/07 07:09:24;;;;;;;7.47;5.32;;;;;;;21.98;71.62;99898.59;10240670;28;20125;-64
2022/09/07 07:14:26;;;;;;;7.20;5.10;;;;;;;22.03;70.38;99892.53;10239011;28;20058;-65
2022/09/07 07:19:30;;;;;;;6.40;4.20;;;;;;;22.10;69.66;99890.69;10238253;28;20046;-65
2022/09/07 07:24:31;;;;;;;5.40;3.65;;;;;;;22.03;69.75;99901.50;10238086;28;20085;-62
2022/09/07 07:29:33;;;;;;;5.95;3.60;;;;;;;22.40;69.46;99903.84;10237705;28;20606;-63
2022/09/07 07:34:34;;;;;;;4.15;2.83;;;;;;;23.13;67.40;99900.16;10244906;28;20061;-62
2022/09/07 07:39:35;;;;;;;4.50;2.95;;;;;;;23.29;64.58;99899.66;10244992;28;20181;-62
2022/09/07 07:44:57;;;;;;;4.97;2.95;;;;;;;23.10;65.20;99909.56;10242736;28;20069;-62
2022/09/07 07:50:18;;;;;;;4.53;2.95;;;;;;;;;;10250263;28;20069;-62
2022/09/07 07:55:36;;;;;;;4.43;3.13;;;;;;;22.69;67.38;99923.41;10250604;28;20061;-61
2022/09/07 08:00:46;;;;;;;5.10;2.45;;;;;;;22.97;66.54;99923.16;10284676;28;20146;-63
2022/09/07 08:06:03;;;;;;;6.10;3.25;;;;;;;23.45;65.36;99935.53;10306336;28;20057;-62
2022/09/07 08:11:07;;;;;;;4.05;2.88;;;;;;;23.19;64.53;99940.00;10270805;28;20053;-61
2022/09/07 08:16:10;;;;;;;6.28;3.05;;;;;;;22.92;65.92;99942.78;10257171;28;20061;-60
2022/09/07 08:21:13;;;;;;;15.13;13.67;;;;;;;22.90;67.40;99939.44;10276539;28;20058;-61
2022/09/07 08:26:14;;;;;;;;;;;;;;;23.16;66.26;99948.59;10276927;28;20061;-61
2022/09/07 08:31:16;;;;;;;4.88;2.60;;;;;;;23.34;65.12;99945.19;10282725;28;19940;-68
2022/09/07 08:36:19;;;;;;;7.22;3.60;;;;;;;23.15;65.90;99951.50;10285057;28;20058;-69
2022/09/07 08:41:57;;;;;;;3.92;1.95;;;;;;;23.62;65.16;99965.75;10278591;28;20054;-69
2022/09/07 08:47:37;;;;;;;8.30;2.70;;;;;;;24.21;63.39;99969.19;10254980;28;20152;-68
2022/09/07 08:52:50;;;;;;;5.75;2.53;;;;;;;24.73;61.39;99962.75;10242029;28;20059;-69
2022/09/07 08:58:03;;;;;;;6.65;3.78;;;;;;;24.86;60.76;99963.44;10236160;28;20894;-68
2022/09/07 09:03:13;;;;;;;3.93;2.60;;;;;;;24.96;60.53;99973.78;10238252;28;20240;-68
2022/09/07 09:08:30;;;;;;;5.97;3.58;;;;;;;24.79;61.30;99978.19;10241212;28;20281;-68
2022/09/07 09:14:07;;;;;;;4.97;3.25;;;;;;;24.84;60.69;99984.59;10274475;28;20069;-66
2022/09/07 09:19:27;;;;;;;6.85;5.78;;;;;;;24.83;61.45;99973.94;10227460;28;20046;-67
2022/09/07 09:24:36;;;;;;;5.85;3.03;;;;;;;25.44;59.72;99969.53;10244535;28;20085;-67
2022/09/07 09:29:37;;;;;;;3.97;2.70;;;;;;;25.81;58.43;99963.19;10236613;28;20057;-67
2022/09/07 09:34:39;;;;;;;3.90;2.70;;;;;;;26.02;57.39;99956.41;10235554;28;20179;-67
2022/09/07 09:39:42;;;;;;;4.93;2.58;;;;;;;26.69;56.77;99947.97;10236655;28;20054;-68
2022/09/07 09:44:44;;;;;;;3.90;2.72;;;;;;;27.38;54.46;99962.91;10235095;28;20056;-68
2022/09/07 09:49:46;;;;;;;4.57;2.50;;;;;;;27.70;52.86;99963.28;10232687;28;20054;-68
2022/09/07 09:54:52;;;;;;;5.70;2.28;;;;;;;27.80;51.98;99947.06;10246166;28;20058;-70
2022/09/07 10:00:01;;;;;;;4.25;2.03;;;;;;;27.86;50.85;99937.88;10269699;28;20530;-70
2022/09/07 10:05:26;;;;;;;4.05;2.00;;;;;;;27.95;50.30;99927.34;10235075;28;20054;-69
2022/09/07 10:10:29;;;;;;;3.17;1.70;;;;;;;28.38;49.37;99925.09;10235048;28;20054;-70
2022/09/07 10:15:35;;;;;;;3.70;1.60;;;;;;;31.30;43.46;99915.44;10235218;28;20081;-69
2022/09/07 10:20:41;;;;;;;7.13;2.00;;;;;;;34.17;36.78;99907.66;10236776;28;20137;-69
2022/09/07 10:25:46;;;;;;;3.25;1.67;;;;;;;35.31;36.03;99906.50;10252279;28;20864;-69
2022/09/07 10:31:15;;;;;;;3.95;1.90;;;;;;;33.81;35.77;99883.13;10237980;28;20559;-69
2022/09/07 10:36:29;;;;;;;3.13;1.50;;;;;;;32.77;39.09;99884.72;10235695;28;20065;-69
2022/09/07 10:41:44;;;;;;;3.72;1.30;;;;;;;33.58;36.23;99886.56;10233267;28;20100;-71
2022/09/07 10:46:45;;;;;;;2.65;1.20;;;;;;;38.01;29.98;99869.50;10236573;28;20043;-71
2022/09/07 10:52:33;;;;;;;1.80;1.00;;;;;;;39.76;26.01;99873.69;10247124;28;20070;-71
2022/09/07 10:58:00;;;;;;;2.67;0.98;;;;;;;41.30;24.36;99869.31;10228475;28;20049;-71
2022/09/07 11:03:11;;;;;;;4.00;1.30;;;;;;;42.24;22.65;99862.44;10238284;28;20792;-69
2022/09/07 11:08:55;;;;;;;3.72;0.90;;;;;;;43.28;22.00;99852.97;10248498;28;20512;-69
2022/09/07 11:14:20;;;;;;;4.13;1.00;;;;;;;43.56;21.77;99848.22;10243222;28;20065;-69
2022/09/07 11:19:29;;;;;;;3.63;0.90;;;;;;;45.14;20.01;99850.66;10240829;28;20823;-69
2022/09/07 11:24:46;;;;;;;2.25;0.90;;;;;;;45.59;18.82;99843.59;10239922;28;20354;-69
2022/09/07 11:29:54;;;;;;;3.83;1.00;;;;;;;45.14;18.98;99836.63;10238974;28;20132;-70
2022/09/07 11:35:10;;;;;;;5.82;1.80;;;;;;;45.57;18.15;99831.91;10239106;28;20061;-70
2022/09/07 11:40:27;;;;;;;3.00;0.90;;;;;;;46.72;17.94;99836.78;10238286;28;20046;-69
2022/09/07 11:45:42;;;;;;;2.47;0.90;;;;;;;48.02;16.03;99813.00;10240418;28;20121;-69
2022/09/07 11:50:50;;;;;;;4.03;0.85;;;;;;;47.44;15.54;99814.41;10274493;28;20054;-71
2022/09/07 11:56:00;;;;;;;1.55;0.50;;;;;;;49.02;14.53;99814.97;10279066;28;20076;-70
2022/09/07 12:01:17;;;;;;;2.92;0.57;;;;;;;49.15;14.30;99818.25;10277918;28;20037;-70
2022/09/07 12:06:50;;;;;;;2.53;0.60;;;;;;;48.97;13.31;99804.06;10284439;28;20068;-69
2022/09/07 12:12:16;;;;;;;2.22;0.70;;;;;;;49.75;13.69;99788.56;10253719;28;20062;-72
2022/09/07 12:17:32;;;;;;;3.07;1.00;;;;;;;48.66;14.16;99780.84;10244352;28;20050;-71
2022/09/07 12:22:34;;;;;;;2.67;0.83;;;;;;;48.27;14.54;99765.28;10236536;28;20069;-69
2022/09/07 12:27:37;;;;;;;2.25;0.50;;;;;;;47.99;14.27;99751.75;10278432;28;20423;-71
2022/09/07 12:32:50;;;;;;;3.33;0.70;;;;;;;48.42;13.68;99752.09;10286191;28;20065;-70
2022/09/07 12:38:21;;;;;;;3.63;0.80;;;;;;;47.58;14.18;99757.38;10282985;28;20088;-70
2022/09/07 12:43:22;;;;;;;4.05;0.75;;;;;;;46.97;14.83;99756.69;10219100;28;20498;-69
2022/09/07 12:48:43;;;;;;;2.88;0.82;;;;;;;44.23;17.02;99757.13;10243909;28;20051;-69
2022/09/07 12:53:59;;;;;;;3.08;0.77;;;;;;;41.70;19.82;99743.16;10270688;28;20244;-72
2022/09/07 12:59:15;;;;;;;1.08;0.50;;;;;;;39.24;22.54;99742.84;10240816;28;20050;-69
2022/09/07 13:04:45;;;;;;;1.70;0.70;;;;;;;37.96;23.65;99759.34;10236879;28;20050;-71
2022/09/07 13:09:58;;;;;;;3.85;0.77;;;;;;;35.62;27.05;99767.69;10239653;28;20537;-70
2022/09/07 13:15:00;;;;;;;2.88;1.08;;;;;;;34.53;28.52;99762.88;10241803;28;20074;-71
2022/09/07 13:20:09;;;;;;;2.78;1.02;;;;;;;33.30;30.75;99787.72;10237259;28;20327;-70
2022/09/07 13:25:21;;;;;;;1.35;0.60;;;;;;;32.19;32.85;99796.16;10243027;28;20050;-71
2022/09/07 13:30:29;;;;;;;2.78;0.82;;;;;;;29.89;38.39;99804.19;10236936;28;20038;-71
2022/09/07 13:35:31;;;;;;;2.80;0.98;;;;;;;29.49;40.97;99810.94;10233681;28;20361;-69
2022/09/07 13:40:38;;;;;;;2.03;0.93;;;;;;;29.00;42.51;99810.94;10250409;28;20112;-69
2022/09/07 13:45:44;;;;;;;2.20;0.77;;;;;;;28.96;42.36;99802.44;10272023;28;20720;-68
2022/09/07 13:50:52;;;;;;;2.15;1.02;;;;;;;30.37;39.34;99786.91;10275074;28;20592;-68
2022/09/07 13:56:23;;;;;;;1.65;0.77;;;;;;;30.29;37.45;99793.75;10274409;28;20059;-68
2022/09/07 14:01:26;;;;;;;1.20;0.57;;;;;;;30.32;37.68;99795.97;10233908;28;20090;-68
2022/09/07 14:06:31;;;;;;;1.33;0.50;;;;;;;29.95;38.60;99786.69;10241455;28;20050;-68
2022/09/07 14:11:47;;;;;;;2.10;0.70;;;;;;;30.44;37.54;99776.56;10237443;28;20804;-68
2022/09/07 14:16:58;;;;;;;1.55;0.75;;;;;;;30.40;37.30;99783.66;10273062;28;20269;-68
2022/09/07 14:22:01;;;;;;;1.85;0.73;;;;;;;30.06;37.92;99773.84;10232453;28;20042;-66
2022/09/07 14:27:04;;;;;;;3.83;0.90;;;;;;;29.73;37.93;99764.81;10236703;28;20134;-68
2022/09/07 14:32:14;;;;;;;1.75;0.80;;;;;;;29.57;37.87;99777.56;10229399;28;20630;-70
2022/09/07 14:37:18;;;;;;;1.92;0.82;;;;;;;29.47;37.76;99780.25;10234383;28;20217;-67
2022/09/07 14:42:22;;;;;;;2.38;0.60;;;;;;;29.37;37.90;99782.88;10234775;28;20054;-66
2022/09/07 14:47:28;;;;;;;1.05;0.75;;;;;;;29.52;37.07;99769.31;10232407;28;20677;-66
2022/09/07 14:52:35;;;;;;;2.65;1.25;;;;;;;29.12;36.99;99765.06;10245943;28;20516;-69
2022/09/07 14:57:44;;;;;;;2.70;0.70;;;;;;;29.11;37.56;99760.69;10240198;28;20054;-67
2022/09/07 15:02:46;;;;;;;1.13;0.75;;;;;;;28.99;38.06;99754.50;10236547;28;20627;-67
2022/09/07 15:08:17;;;;;;;2.42;0.70;;;;;;;28.87;38.32;99751.91;10236312;28;20060;-68
2022/09/07 15:13:32;;;;;;;4.50;1.48;;;;;;;28.85;38.23;99743.13;10267074;28;20089;-68
2022/09/07 15:18:48;;;;;;;2.67;1.05;;;;;;;28.91;38.89;99747.56;10232723;28;20046;-68
2022/09/07 15:23:52;;;;;;;3.58;1.40;;;;;;;28.64;39.36;99737.41;10236351;28;20046;-69
2022/09/07 15:28:53;;;;;;;2.08;1.27;;;;;;;28.53;40.06;99733.69;10234500;28;20046;-68
2022/09/07 15:34:13;;;;;;;1.50;1.20;;;;;;;28.39;39.92;99713.28;10279126;28;20088;-68
2022/09/07 15:39:22;;;;;;;1.95;1.13;;;;;;;28.28;39.74;99697.81;10270348;28;20054;-68
2022/09/07 15:44:23;;;;;;;2.88;1.05;;;;;;;28.07;40.33;99700.25;10279686;28;20105;-68
2022/09/07 15:49:28;;;;;;;2.53;1.02;;;;;;;27.95;40.06;99702.25;10276464;28;20061;-68
2022/09/07 15:54:29;;;;;;;3.15;1.30;;;;;;;28.02;40.62;99709.22;10277819;28;20058;-68
2022/09/07 15:59:34;;;;;;;4.22;1.00;;;;;;;27.95;40.67;99691.31;10294325;28;20448;-67
2022/09/07 16:04:35;;;;;;;1.60;1.10;;;;;;;27.76;41.61;99694.34;10240014;28;20062;-67
2022/09/07 16:09:39;;;;;;;3.08;1.30;;;;;;;27.93;40.69;99682.56;10247841;28;20055;-68
2022/09/07 16:14:40;;;;;;;1.90;0.90;;;;;;;27.82;41.62;99692.53;10251508;28;20046;-67
2022/09/07 16:19:41;;;;;;;2.45;1.13;;;;;;;27.86;41.36;99694.50;10241670;28;20062;-67
2022/09/07 16:24:43;;;;;;;2.65;1.40;;;;;;;27.82;42.02;99698.81;10244533;28;20098;-68
2022/09/07 16:29:44;;;;;;;4.40;1.05;;;;;;;27.60;41.07;99690.53;10237258;28;20054;-67
2022/09/07 16:34:46;;;;;;;2.47;1.47;;;;;;;27.39;42.15;99689.38;10240581;28;20059;-67
2022/09/07 16:39:47;;;;;;;2.25;1.27;;;;;;;27.28;41.69;99684.81;10239069;28;20054;-67
2022/09/07 16:44:51;;;;;;;;;;;;;;;27.08;42.04;99694.31;10237211;28;20066;-67
2022/09/07 16:49:53;;;;;;;2.42;1.20;;;;;;;26.94;41.87;99687.50;10232074;28;20666;-67
2022/09/07 16:54:54;;;;;;;2.75;2.25;;;;;;;26.84;42.46;99679.94;10270769;28;20054;-67
2022/09/07 16:59:55;;;;;;;3.55;1.83;;;;;;;26.76;42.64;99681.16;10277518;28;20546;-66
2022/09/07 17:04:57;;;;;;;2.47;1.30;;;;;;;26.65;43.21;99679.28;10279077;28;20058;-67
2022/09/07 17:09:58;;;;;;;1.73;1.17;;;;;;;26.40;42.55;99674.97;10271860;28;20381;-67
2022/09/07 17:14:59;;;;;;;4.20;1.25;;;;;;;26.19;42.68;99670.19;10238405;28;20417;-60
2022/09/07 17:20:01;;;;;;;2.40;1.42;;;;;;;26.10;42.88;99678.72;10243899;28;20070;-60
2022/09/07 17:25:03;;;;;;;4.20;1.33;;;;;;;26.03;43.38;99672.59;10252930;28;20057;-60
2022/09/07 17:30:05;;;;;;;2.70;1.17;;;;;;;25.85;42.90;99664.50;10240365;28;20066;-58
2022/09/07 17:35:07;;;;;;;2.47;1.20;;;;;;;25.85;42.79;99680.88;10240491;28;20049;-60
2022/09/07 17:40:09;;;;;;;2.63;1.67;;;;;;;25.77;42.29;99665.69;10239634;28;20325;-60
2022/09/07 17:45:10;;;;;;;4.23;1.70;;;;;;;25.83;43.32;99672.09;10237716;28;20062;-64
2022/09/07 17:50:12;;;;;;;3.95;2.00;;;;;;;25.75;42.32;99682.28;10241297;28;20259;-60
2022/09/07 17:55:13;;;;;;;4.18;1.70;;;;;;;25.71;42.38;99678.38;10239981;28;20081;-61
2022/09/07 18:00:15;;;;;;;4.15;1.75;;;;;;;25.71;42.31;99685.72;10237312;28;20235;-61
2022/09/07 18:05:16;;;;;;;3.28;1.90;;;;;;;25.66;41.92;99682.91;10233300;28;20051;-61
2022/09/07 18:10:18;;;;;;;2.83;1.47;;;;;;;25.48;42.11;99681.13;10239277;28;20522;-61
2022/09/07 18:15:21;;;;;;;2.38;1.48;;;;;;;25.38;42.47;99692.59;10238954;28;20559;-62
2022/09/07 18:20:23;;;;;;;1.98;1.20;;;;;;;25.39;42.52;99692.34;10291881;23;20076;-61
2022/09/07 18:25:24;;;;;;;2.43;1.23;;;;;;;25.43;43.76;99689.16;10280199;28;20398;-61
2022/09/07 18:30:25;;;;;;;2.58;1.02;;;;;;;25.43;42.94;99670.91;10284134;28;20058;-61
2022/09/07 18:35:27;;;;;;;1.50;0.90;;;;;;;25.45;42.28;99676.16;10286843;28;20056;-61
2022/09/07 18:40:28;;;;;;;2.65;1.05;;;;;;;25.43;42.15;99689.97;10286340;28;21521;-60
2022/09/07 18:45:29;;;;;;;5.13;1.08;;;;;;;25.39;43.13;99691.53;10284570;28;20054;-62
2022/09/07 18:50:33;;;;;;;3.65;1.92;;;;;;;25.37;42.85;99691.75;10282645;28;20082;-61
2022/09/07 18:55:34;;;;;;;2.85;1.00;;;;;;;25.32;42.85;99690.81;10285322;28;20407;-61
2022/09/07 19:00:35;;;;;;;1.75;1.10;;;;;;;25.24;42.25;99689.22;10283081;28;20049;-60
2022/09/07 19:05:37;;;;;;;1.15;0.70;;;;;;;25.19;43.47;99680.91;10279619;28;20068;-60
2022/09/07 19:10:53;;;;;;;1.42;0.90;;;;;;;25.20;43.93;99680.66;10279715;28;20057;-61
2022/09/07 19:16:05;;;;;;;2.88;1.17;;;;;;;25.03;43.13;99677.81;10285715;28;20053;-62
2022/09/07 19:21:09;;;;;;;1.88;1.02;;;;;;;24.98;44.43;99693.16;10281184;28;20137;-61
2022/09/07 19:26:16;;;;;;;2.13;1.25;;;;;;;25.00;45.27;99697.31;10287246;28;20495;-61
2022/09/07 19:31:18;;;;;;;3.53;1.00;;;;;;;24.94;45.76;99692.81;10293425;28;20053;-61
2022/09/07 19:36:20;;;;;;;3.20;1.25;;;;;;;24.87;46.07;99683.91;10296891;28;20061;-62
2022/09/07 19:41:21;;;;;;;2.65;1.35;;;;;;;24.82;46.60;99667.44;10295020;28;20061;-60
2022/09/07 19:46:23;;;;;;;2.00;1.27;;;;;;;24.80;48.00;99658.66;10294518;28;20362;-60
2022/09/07 19:51:25;;;;;;;2.83;1.33;;;;;;;24.73;49.06;99666.13;10300446;28;20057;-60
2022/09/07 19:56:26;;;;;;;2.85;1.60;;;;;;;24.64;50.46;99658.28;10281654;28;20045;-60
2022/09/07 20:01:28;;;;;;;2.58;1.70;;;;;;;24.56;50.66;99646.84;10283185;28;20844;-61
2022/09/07 20:06:33;;;;;;;6.38;3.55;;;;;;;24.50;51.53;99654.88;10281853;28;20064;-59
2022/09/07 20:11:35;;;;;;;2.95;2.17;;;;;;;24.40;52.09;99640.16;10285406;28;20050;-60
2022/09/07 20:16:38;;;;;;;4.50;2.35;;;;;;;24.38;52.29;99634.09;10282994;28;20482;-61
2022/09/07 20:21:39;;;;;;;3.35;2.05;;;;;;;24.35;52.55;99617.19;10283809;28;20202;-61
2022/09/07 20:26:40;;;;;;;6.15;3.08;;;;;;;24.31;51.70;99621.44;10286950;28;20045;-62
2022/09/07 20:31:42;;;;;;;3.53;2.97;;;;;;;24.19;53.30;99626.00;10287692;28;20541;-63
2022/09/07 20:36:44;;;;;;;3.17;2.72;;;;;;;24.17;52.85;99609.09;10221648;28;20137;-62
2022/09/07 20:41:46;;;;;;;3.58;2.78;;;;;;;24.10;52.88;99601.00;10318449;28;20428;-61
2022/09/07 20:46:47;;;;;;;3.72;3.05;;;;;;;23.98;53.12;99600.94;10313710;28;20052;-60
2022/09/07 20:51:48;;;;;;;5.05;3.20;;;;;;;23.94;54.18;99610.59;10315498;28;20049;-61
2022/09/07 20:56:50;;;;;;;3.95;3.22;;;;;;;23.91;54.10;99602.88;10314120;28;20178;-60
2022/09/07 21:01:51;;;;;;;4.32;2.97;;;;;;;23.93;54.17;99611.66;10312012;28;20052;-60
2022/09/07 21:06:53;;;;;;;2.40;2.20;;;;;;;23.92;53.81;99618.16;10309826;28;20165;-60
2022/09/07 21:11:55;;;;;;;3.72;2.60;;;;;;;23.94;53.66;99604.34;10314497;28;20049;-61
2022/09/07 21:16:57;;;;;;;;;;;;;;;23.92;53.34;99610.00;10316821;28;20319;-62
2022/09/07 21:21:58;;;;;;;5.38;2.83;;;;;;;23.80;54.33;99617.22;10316629;28;19921;-62
2022/09/07 21:27:00;;;;;;;4.75;2.80;;;;;;;23.66;53.51;99624.69;10316111;28;20479;-62
2022/09/07 21:32:02;;;;;;;3.75;2.00;;;;;;;23.43;52.53;99628.03;10315558;28;20053;-62
2022/09/07 21:37:03;;;;;;;3.10;1.90;;;;;;;23.36;53.62;99628.09;10313280;28;20056;-59
2022/09/07 21:42:04;;;;;;;3.78;2.17;;;;;;;23.35;55.30;99617.47;10313474;28;20056;-59
2022/09/07 21:47:06;;;;;;;2.95;2.42;;;;;;;23.38;55.33;99608.88;10314170;28;20049;-60
2022/09/07 21:52:07;;;;;;;4.13;2.20;;;;;;;23.35;55.12;99602.00;10310475;28;20052;-61
2022/09/07 21:57:09;;;;;;;4.70;2.28;;;;;;;23.28;54.82;99599.34;10309627;28;20040;-61
2022/09/07 22:02:10;;;;;;;3.35;2.05;;;;;;;23.33;55.42;99595.13;10284342;28;20153;-61
2022/09/07 22:07:12;;;;;;;3.28;2.28;;;;;;;23.29;55.04;99601.00;10273691;28;20065;-61
2022/09/07 22:12:13;;;;;;;4.28;2.83;;;;;;;23.20;56.26;99596.91;10272444;28;20061;-61
2022/09/07 22:17:14;;;;;;;8.05;2.97;;;;;;;23.14;55.94;99597.78;10270214;28;20050;-61
2022/09/07 22:22:16;;;;;;;4.53;2.58;;;;;;;23.08;56.09;99587.78;10276393;28;20361;-61
2022/09/07 22:27:17;;;;;;;3.90;2.80;;;;;;;23.07;56.23;99596.97;10313911;28;20069;-61
2022/09/07 22:32:18;;;;;;;4.80;2.70;;;;;;;23.08;56.82;99595.94;10310771;28;20053;-61
2022/09/07 22:37:20;;;;;;;3.95;2.72;;;;;;;22.97;55.93;99580.38;10311155;28;20045;-61
2022/09/07 22:42:21;;;;;;;5.05;2.83;;;;;;;22.98;57.09;99568.47;10312793;28;20053;-61
2022/09/07 22:47:22;;;;;;;2.95;2.08;;;;;;;22.92;58.86;99562.88;10312448;28;20053;-61
2022/09/07 22:52:24;;;;;;;3.70;2.50;;;;;;;22.80;59.61;99553.78;10312711;28;20046;-61
2022/09/07 22:57:25;;;;;;;4.95;2.47;;;;;;;22.76;59.80;99530.88;10307205;28;20050;-61
2022/09/07 23:02:27;;;;;;;3.15;2.65;;;;;;;22.78;60.58;99523.34;10316113;28;20038;-61
2022/09/07 23:07:28;;;;;;;3.42;2.17;;;;;;;22.63;59.89;99512.81;10319957;28;20042;-61
2022/09/07 23:12:30;;;;;;;3.58;2.15;;;;;;;22.67;60.00;99510.47;10303262;28;20063;-60
2022/09/07 23:17:31;;;;;;;4.38;2.33;;;;;;;22.66;58.71;99497.97;10299886;28;20049;-60
2022/09/07 23:22:32;;;;;;;3.20;2.25;;;;;;;22.74;58.51;99489.56;10318607;28;20054;-60
2022/09/07 23:27:34;;;;;;;3.70;2.42;;;;;;;22.68;58.32;99493.16;10314107;28;20054;-60
2022/09/07 23:32:35;;;;;;;3.60;2.30;;;;;;;22.54;58.61;99485.13;10320213;28;20050;-60
2022/09/07 23:37:36;;;;;;;2.60;2.22;;;;;;;22.54;59.04;99479.69;10316659;28;20128;-60
2022/09/07 23:42:38;;;;;;;4.05;2.85;;;;;;;22.50;59.07;99473.06;10314852;28;20045;-60
2022/09/07 23:47:39;;;;;;;2.78;2.58;;;;;;;22.46;59.77;99477.28;10315049;28;20046;-59